Time;durP1;ratioP1;P1;durP2;ratioP2;P2;SDS_P1;SDS_P2;PMS_P1;PMS_P2;Temp;Humidity;BMP_temperature;BMP_pressure;BME280_temperature;BME280_humidity;BME280_pressure;Samples;Min_cycle;Max_cycle;Signal;HPM_P1;HPM_P2
2022/05/21 00:01:47;;;;;;;5.93;3.20;;;;;;;18.90;60.28;98191.91;5035395;28;20025;-76
2022/05/21 00:04:13;;;;;;;5.07;2.83;;;;;;;18.74;60.26;98179.84;5036048;28;20069;-76
2022/05/21 00:06:40;;;;;;;4.13;2.80;;;;;;;18.80;60.14;98180.44;5048223;28;20029;-75
2022/05/21 00:09:06;;;;;;;3.88;2.85;;;;;;;18.79;60.16;98178.84;5030720;28;20047;-76
2022/05/21 00:11:32;;;;;;;3.63;2.70;;;;;;;18.86;59.90;98179.88;5030014;28;20037;-75
2022/05/21 00:13:57;;;;;;;5.22;3.08;;;;;;;18.82;59.78;98180.94;5031391;28;20021;-76
2022/05/21 00:16:23;;;;;;;5.00;2.72;;;;;;;18.82;59.34;98176.19;5031241;28;20045;-76
2022/05/21 00:18:49;;;;;;;4.65;3.13;;;;;;;18.89;58.95;98179.19;5031065;28;20056;-75
2022/05/21 00:21:16;;;;;;;3.50;2.40;;;;;;;18.84;58.93;98175.84;5031669;28;20021;-76
2022/05/21 00:23:42;;;;;;;5.97;2.72;;;;;;;18.82;58.39;98172.59;5031622;28;20452;-77
2022/05/21 00:26:11;;;;;;;6.88;2.70;;;;;;;18.89;58.31;98172.84;5032325;28;20040;-76
2022/05/21 00:28:39;;;;;;;4.60;2.92;;;;;;;18.94;57.95;98164.31;5030795;28;20043;-76
2022/05/21 00:31:06;;;;;;;5.25;2.70;;;;;;;18.88;58.24;98160.13;5031548;28;20108;-75
2022/05/21 00:33:32;;;;;;;4.30;2.80;;;;;;;18.89;58.24;98172.84;5030987;28;20108;-75
2022/05/21 00:35:58;;;;;;;5.82;2.90;;;;;;;18.85;58.43;98180.22;5030690;28;20033;-76
2022/05/21 00:38:24;;;;;;;4.65;2.92;;;;;;;18.87;58.60;98181.50;5030802;28;20387;-75
2022/05/21 00:40:50;;;;;;;3.88;2.88;;;;;;;18.87;58.89;98164.88;5030685;28;20037;-76
2022/05/21 00:43:34;;;;;;;5.82;2.53;;;;;;;18.90;58.85;98150.31;5031088;28;20498;-76
2022/05/21 00:46:00;;;;;;;3.92;2.80;;;;;;;18.85;59.16;98155.28;5030793;28;20057;-76
2022/05/21 00:48:26;;;;;;;6.78;3.13;;;;;;;18.76;59.68;98140.72;5030731;28;20116;-75
2022/05/21 00:50:52;;;;;;;4.05;2.95;;;;;;;18.76;59.81;98132.41;5030773;28;20028;-75
2022/05/21 00:53:19;;;;;;;6.22;2.80;;;;;;;18.68;59.32;98112.75;5030769;28;20025;-75
2022/05/21 00:55:45;;;;;;;3.88;2.63;;;;;;;18.70;59.46;98106.88;5030695;28;20060;-75
2022/05/21 01:01:01;;;;;;;3.60;2.60;;;;;;;18.67;59.09;98088.16;5031385;28;20033;-75
2022/05/21 01:03:29;;;;;;;5.80;2.60;;;;;;;18.61;58.61;98089.53;5030234;28;20025;-75
2022/05/21 01:05:54;;;;;;;3.72;2.75;;;;;;;18.67;58.83;98083.41;5030603;28;20052;-75
2022/05/21 01:08:20;;;;;;;5.22;2.88;;;;;;;18.60;58.82;98065.75;5030921;28;20029;-75
2022/05/21 01:10:51;;;;;;;6.28;2.83;;;;;;;18.60;58.96;98072.13;5029274;28;20503;-75
2022/05/21 01:13:19;;;;;;;3.88;2.80;;;;;;;18.68;58.59;98070.38;5030632;28;20026;-74
2022/05/21 01:15:47;;;;;;;6.10;3.13;;;;;;;18.71;58.19;98061.38;5031833;28;20037;-76
2022/05/21 01:18:13;;;;;;;5.18;2.88;;;;;;;18.70;57.91;98048.69;5033621;28;20087;-76
2022/05/21 01:20:47;;;;;;;6.72;3.05;;;;;;;18.70;57.76;98046.69;5032054;28;20524;-74
2022/05/21 01:23:17;;;;;;;4.90;2.80;;;;;;;18.74;57.83;98055.13;5049922;28;20033;-76
2022/05/21 01:25:45;;;;;;;4.43;2.63;;;;;;;18.70;58.03;98048.69;5034441;28;20270;-77
2022/05/21 01:28:13;;;;;;;4.72;2.72;;;;;;;18.69;58.12;98041.50;5032889;28;20029;-75
2022/05/21 01:30:56;;;;;;;4.88;2.80;;;;;;;18.72;58.09;98046.38;5034680;28;20372;-76
2022/05/21 01:33:24;;;;;;;3.60;2.63;;;;;;;18.69;58.18;98041.50;5034403;28;20034;-77
2022/05/21 01:35:50;;;;;;;4.03;2.88;;;;;;;18.78;58.16;98039.44;5034268;28;20056;-76
2022/05/21 01:38:21;;;;;;;4.63;2.95;;;;;;;18.69;58.38;98031.25;5034235;28;20486;-76
2022/05/21 01:40:47;;;;;;;3.13;2.47;;;;;;;18.58;58.96;98029.25;5034312;28;20560;-76
2022/05/21 01:45:57;;;;;;;4.00;2.47;;;;;;;18.61;58.97;98023.03;5033870;28;20723;-75
2022/05/21 01:48:25;;;;;;;4.80;2.75;;;;;;;18.61;58.96;98028.56;5033812;28;20025;-76
2022/05/21 01:50:52;;;;;;;3.95;2.80;;;;;;;18.67;58.73;98043.81;5034131;28;20041;-75
2022/05/21 01:53:19;;;;;;;3.80;2.72;;;;;;;18.57;59.02;98017.38;5034256;28;20159;-75
2022/05/21 01:55:45;;;;;;;5.70;3.05;;;;;;;18.57;59.20;98019.34;5033900;28;20076;-75
2022/05/21 01:58:11;;;;;;;6.88;3.00;;;;;;;18.54;59.12;97995.09;5033598;28;20771;-75
2022/05/21 02:00:37;;;;;;;4.88;2.75;;;;;;;18.50;59.05;97980.31;5034354;28;20040;-75
2022/05/21 02:03:03;;;;;;;5.35;2.70;;;;;;;18.51;58.81;97973.63;5033835;28;20033;-75
2022/05/21 02:05:29;;;;;;;5.63;3.10;;;;;;;18.53;58.52;97985.97;5033124;28;20052;-76
2022/05/21 02:07:54;;;;;;;5.03;3.00;;;;;;;18.50;58.61;97983.91;5032317;28;20029;-76
2022/05/21 02:10:21;;;;;;;5.53;3.05;;;;;;;18.46;58.57;97982.13;5033165;28;20021;-76
2022/05/21 02:12:47;;;;;;;5.68;3.47;;;;;;;18.44;58.55;97978.91;5034260;28;20046;-75
2022/05/21 02:15:12;;;;;;;4.32;2.80;;;;;;;18.46;58.72;97973.81;5036321;28;20037;-76
2022/05/21 02:17:38;;;;;;;7.55;2.58;;;;;;;18.46;58.41;97976.59;5040783;28;20390;-77
2022/05/21 02:20:04;;;;;;;5.43;2.97;;;;;;;18.49;58.25;97975.88;5034241;28;20152;-76
2022/05/21 02:22:29;;;;;;;4.47;2.65;;;;;;;18.46;58.01;97965.50;5033621;28;20040;-75
2022/05/21 02:24:55;;;;;;;5.45;2.60;;;;;;;18.55;58.13;97969.00;5033339;28;20037;-75
2022/05/21 02:27:20;;;;;;;3.55;2.67;;;;;;;18.58;58.07;97979.38;5033303;28;20037;-75
2022/05/21 02:29:46;;;;;;;3.53;2.67;;;;;;;18.58;58.13;97987.69;5033282;28;20040;-76
2022/05/21 02:32:14;;;;;;;3.72;2.63;;;;;;;18.55;57.82;97969.81;5032946;28;20029;-75
2022/05/21 02:34:40;;;;;;;3.97;2.50;;;;;;;18.64;57.21;97970.50;5033183;28;20043;-75
2022/05/21 02:39:51;;;;;;;6.43;3.45;;;;;;;18.64;57.14;97973.25;5023546;28;20141;-75
2022/05/21 02:45:00;;;;;;;4.38;2.78;;;;;;;18.80;56.56;97983.63;5013192;28;20061;-76
2022/05/21 02:47:26;;;;;;;4.35;2.75;;;;;;;18.81;56.81;97982.50;5012795;28;20038;-75
2022/05/21 02:49:52;;;;;;;4.93;3.20;;;;;;;18.81;56.46;97991.63;5012635;28;20037;-77
2022/05/21 02:52:17;;;;;;;9.45;2.80;;;;;;;18.77;56.44;97993.47;5012796;28;20026;-75
2022/05/21 02:54:43;;;;;;;8.27;3.08;;;;;;;18.80;56.45;97990.00;5012646;28;20021;-76
2022/05/21 02:57:09;;;;;;;4.30;2.90;;;;;;;18.76;57.60;97994.63;5031905;28;20057;-74
2022/05/21 02:59:36;;;;;;;4.50;2.80;;;;;;;18.68;59.53;98003.84;5032390;28;20536;-72
2022/05/21 03:02:02;;;;;;;5.75;3.83;;;;;;;18.56;60.94;98007.44;5032857;28;20474;-75
2022/05/21 03:04:28;;;;;;;6.60;3.38;;;;;;;18.47;62.40;98011.44;5032178;28;20025;-75
2022/05/21 03:06:53;;;;;;;5.57;3.38;;;;;;;18.24;63.08;98008.31;5032396;28;20056;-75
2022/05/21 03:12:03;;;;;;;6.38;3.30;;;;;;;18.11;64.13;98018.53;5032310;28;20905;-75
2022/05/21 03:14:28;;;;;;;6.10;3.40;;;;;;;18.02;64.89;98017.03;5032282;28;20033;-75
2022/05/21 03:16:59;;;;;;;5.88;2.88;;;;;;;17.89;65.41;98001.53;5031799;28;20044;-76
2022/05/21 03:19:25;;;;;;;5.05;3.70;;;;;;;17.85;65.55;98018.03;5032155;28;20033;-75
2022/05/21 03:21:50;;;;;;;6.93;3.80;;;;;;;17.72;66.37;98032.97;5031812;28;20386;-72
2022/05/21 03:24:15;;;;;;;6.28;4.30;;;;;;;17.55;67.47;98031.16;5031996;28;20034;-75
2022/05/21 03:26:41;;;;;;;9.70;4.07;;;;;;;17.47;68.14;98051.38;5032203;28;20021;-75
2022/05/21 03:29:06;;;;;;;9.15;4.05;;;;;;;17.32;69.09;98060.25;5031901;28;20525;-76
2022/05/21 03:31:31;;;;;;;6.65;3.63;;;;;;;17.50;69.01;98060.97;5028750;28;20041;-75
2022/05/21 03:33:57;;;;;;;7.10;4.43;;;;;;;17.47;68.99;98059.69;5027091;28;20185;-77
2022/05/21 03:36:22;;;;;;;7.25;4.38;;;;;;;17.57;68.84;98066.78;5012009;28;20087;-77
2022/05/21 03:38:49;;;;;;;6.80;4.75;;;;;;;17.48;69.07;98052.97;5011995;28;20442;-75
2022/05/21 03:41:14;;;;;;;8.13;3.95;;;;;;;17.41;69.61;98049.97;5012077;28;20032;-76
2022/05/21 03:43:40;;;;;;;6.25;3.90;;;;;;;17.27;70.28;98063.25;5011907;28;20025;-75
2022/05/21 03:46:05;;;;;;;8.27;3.97;;;;;;;17.40;69.94;98081.53;5011616;28;20029;-74
2022/05/21 03:48:31;;;;;;;8.32;3.92;;;;;;;17.27;70.93;98082.59;5011665;28;20121;-75
2022/05/21 03:50:57;;;;;;;6.60;4.18;;;;;;;17.18;71.62;98075.50;5013460;28;20034;-80
2022/05/21 03:53:22;;;;;;;9.27;4.25;;;;;;;17.11;71.97;98076.84;5015651;28;20038;-75
2022/05/21 03:55:48;;;;;;;5.57;4.10;;;;;;;17.07;72.38;98086.94;5011927;28;20038;-76
2022/05/21 03:58:15;;;;;;;6.25;4.13;;;;;;;17.13;72.31;98079.28;5011699;28;20034;-76
2022/05/21 04:00:41;;;;;;;5.57;3.70;;;;;;;17.07;73.05;98081.41;5011855;28;20436;-76
2022/05/21 04:03:06;;;;;;;10.68;3.67;;;;;;;17.14;72.86;98081.69;5026443;28;20033;-75
2022/05/21 04:05:32;;;;;;;8.45;4.68;;;;;;;17.17;73.02;98088.50;5011354;28;20096;-75
2022/05/21 04:07:58;;;;;;;7.35;4.82;;;;;;;17.10;73.24;98089.03;5011540;28;20033;-76
2022/05/21 04:10:23;;;;;;;9.00;4.20;;;;;;;17.25;72.82;98092.38;5011314;28;20438;-76
2022/05/21 04:12:48;;;;;;;7.47;4.28;;;;;;;17.26;72.77;98102.31;5011300;28;20034;-76
2022/05/21 04:15:14;;;;;;;9.60;4.75;;;;;;;17.28;72.78;98100.00;5009827;28;20109;-75
2022/05/21 04:17:40;;;;;;;9.50;4.53;;;;;;;17.21;73.29;98097.75;5011293;28;20530;-76
2022/05/21 04:20:09;;;;;;;8.13;4.35;;;;;;;17.20;73.53;98103.63;5011189;28;20049;-75
2022/05/21 04:22:35;;;;;;;12.02;5.72;;;;;;;17.27;73.63;98109.44;5011197;28;20038;-76
2022/05/21 04:25:01;;;;;;;8.43;5.72;;;;;;;17.35;73.29;98097.53;5011253;28;20026;-75
2022/05/21 04:27:26;;;;;;;7.38;4.82;;;;;;;17.49;73.19;98103.59;5011389;28;20048;-76
2022/05/21 04:29:52;;;;;;;6.72;4.75;;;;;;;17.47;73.48;98108.66;5013368;28;20475;-76
2022/05/21 04:32:19;;;;;;;6.50;4.47;;;;;;;17.57;73.15;98122.13;5024104;28;20033;-75
2022/05/21 04:34:45;;;;;;;7.45;4.15;;;;;;;17.74;72.84;98121.16;5030950;28;20029;-76
2022/05/21 04:37:10;;;;;;;6.47;4.53;;;;;;;17.88;72.36;98128.06;5030682;28;20029;-76
2022/05/21 04:39:36;;;;;;;6.05;4.68;;;;;;;18.13;70.81;98129.78;5030591;28;20025;-75
2022/05/21 04:42:01;;;;;;;6.13;4.30;;;;;;;18.25;70.22;98131.78;5029985;28;20055;-75
2022/05/21 04:44:31;;;;;;;5.63;4.25;;;;;;;18.31;70.14;98118.53;5030303;28;20520;-76
2022/05/21 04:46:58;;;;;;;6.95;5.22;;;;;;;18.28;70.36;98119.22;5045169;28;20379;-76
2022/05/21 04:49:24;;;;;;;6.60;4.40;;;;;;;18.42;69.98;98136.34;5030671;28;20117;-75
2022/05/21 04:51:50;;;;;;;8.02;5.53;;;;;;;18.48;70.18;98126.66;5030466;28;20028;-76
2022/05/21 04:54:15;;;;;;;7.18;5.22;;;;;;;18.55;69.90;98132.47;5030459;28;20402;-76
2022/05/21 04:56:40;;;;;;;9.02;6.15;;;;;;;18.70;69.80;98129.06;5029597;28;20057;-76
2022/05/21 04:59:08;;;;;;;12.70;5.50;;;;;;;18.85;69.03;98120.06;5030271;28;20030;-76
2022/05/21 05:01:34;;;;;;;8.57;5.50;;;;;;;18.97;67.92;98122.84;5030816;28;20576;-76
2022/05/21 05:04:00;;;;;;;14.48;5.53;;;;;;;19.06;67.26;98122.72;5030556;28;20033;-76
2022/05/21 05:06:25;;;;;;;7.20;4.70;;;;;;;19.13;66.55;98134.88;5030153;28;20025;-75
2022/05/21 05:08:50;;;;;;;8.65;4.47;;;;;;;19.11;66.60;98130.78;5028651;28;20052;-76
2022/05/21 05:11:16;;;;;;;12.50;4.60;;;;;;;19.19;66.46;98132.66;5030282;28;20037;-76
2022/05/21 05:13:42;;;;;;;5.15;4.10;;;;;;;19.22;66.46;98118.09;5029799;28;20108;-75
2022/05/21 05:16:08;;;;;;;7.90;4.43;;;;;;;19.23;65.56;98123.28;5030170;28;20041;-76
2022/05/21 05:18:33;;;;;;;7.00;4.90;;;;;;;19.30;66.01;98121.88;5030185;28;20028;-75
2022/05/21 05:20:59;;;;;;;6.38;4.30;;;;;;;19.36;65.89;98126.06;5030152;28;20083;-75
2022/05/21 05:23:25;;;;;;;6.80;4.35;;;;;;;19.42;65.15;98119.94;5030274;28;20029;-76
2022/05/21 05:25:52;;;;;;;10.43;4.32;;;;;;;19.60;65.16;98137.16;5030175;28;20535;-75
2022/05/21 05:28:23;;;;;;;6.88;4.25;;;;;;;19.76;63.50;98140.84;5030125;28;20045;-75
2022/05/21 05:30:49;;;;;;;7.22;3.85;;;;;;;19.83;62.06;98141.03;5030611;28;20171;-75
2022/05/21 05:33:16;;;;;;;4.72;3.65;;;;;;;19.91;62.87;98159.53;5030416;28;20530;-75
2022/05/21 05:35:42;;;;;;;7.70;4.68;;;;;;;20.13;63.23;98156.22;5030208;28;20386;-75
2022/05/21 05:38:09;;;;;;;14.07;4.63;;;;;;;20.36;63.13;98161.25;5030319;28;20044;-76
2022/05/21 05:40:36;;;;;;;11.23;5.30;;;;;;;20.53;63.13;98166.50;5030164;28;20025;-75
2022/05/21 05:43:02;;;;;;;7.75;4.18;;;;;;;20.66;62.63;98148.59;5030038;28;20140;-76
2022/05/21 05:45:28;;;;;;;6.47;4.47;;;;;;;20.70;62.01;98146.72;5045367;28;20117;-75
2022/05/21 05:47:53;;;;;;;6.20;4.63;;;;;;;20.77;62.23;98141.31;5030462;28;20033;-75
2022/05/21 05:50:19;;;;;;;8.82;4.65;;;;;;;20.82;62.32;98141.06;5030244;28;20025;-76
2022/05/21 05:52:45;;;;;;;8.73;5.57;;;;;;;20.86;62.20;98139.19;5045508;28;20026;-75
2022/05/21 05:55:10;;;;;;;9.60;5.38;;;;;;;20.94;62.04;98140.97;5030102;28;20108;-76
2022/05/21 05:57:35;;;;;;;15.80;5.47;;;;;;;20.90;60.37;98140.06;5030130;28;20050;-76
2022/05/21 06:00:03;;;;;;;12.20;4.82;;;;;;;20.87;59.52;98140.78;5030115;28;20022;-75
2022/05/21 06:05:19;;;;;;;9.68;4.53;;;;;;;20.68;59.86;98135.13;5030205;28;20394;-76
2022/05/21 06:07:53;;;;;;;8.00;4.28;;;;;;;20.74;60.46;98142.84;5031145;28;20030;-75
2022/05/21 06:10:23;;;;;;;9.60;4.20;;;;;;;20.87;60.26;98145.53;5033744;28;20025;-75
2022/05/21 06:12:48;;;;;;;6.07;4.18;;;;;;;21.00;59.21;98147.91;5033659;28;20398;-76
2022/05/21 06:15:14;;;;;;;11.00;4.80;;;;;;;21.05;60.46;98152.41;5033363;28;20025;-76
2022/05/21 06:17:40;;;;;;;8.75;3.90;;;;;;;21.07;61.83;98153.66;5035838;28;20028;-76
2022/05/21 06:20:08;;;;;;;6.32;3.60;;;;;;;21.04;61.36;98143.25;5045000;28;20030;-75
2022/05/21 06:22:33;;;;;;;12.98;4.30;;;;;;;20.96;60.90;98143.38;5021320;28;20098;-76
2022/05/21 06:25:00;;;;;;;6.22;4.57;;;;;;;20.95;61.02;98147.38;5031471;28;20067;-76
2022/05/21 06:27:25;;;;;;;8.00;3.85;;;;;;;20.99;60.58;98154.63;5033978;28;20039;-77
2022/05/21 06:29:50;;;;;;;6.88;3.88;;;;;;;21.03;60.31;98144.41;5039266;28;20037;-77
2022/05/21 06:32:16;;;;;;;9.88;3.72;;;;;;;21.02;60.44;98145.56;5034182;28;20167;-75
2022/05/21 06:34:42;;;;;;;8.50;4.90;;;;;;;20.95;60.65;98139.00;5033013;28;20556;-76
2022/05/21 06:37:11;;;;;;;6.85;4.18;;;;;;;20.98;61.18;98136.31;5031410;28;20478;-76
2022/05/21 06:39:38;;;;;;;7.18;4.53;;;;;;;21.00;62.02;98145.13;5054421;28;20033;-77
2022/05/21 06:42:04;;;;;;;8.57;4.05;;;;;;;20.96;61.99;98137.81;5033141;28;20097;-75
2022/05/21 06:44:30;;;;;;;7.10;4.35;;;;;;;20.89;61.67;98148.78;5033151;28;20041;-76
2022/05/21 06:46:56;;;;;;;9.32;4.60;;;;;;;20.90;61.78;98165.09;5033426;28;20021;-76
2022/05/21 06:49:22;;;;;;;5.22;3.30;;;;;;;20.87;61.43;98173.34;5032869;28;20398;-76
2022/05/21 06:51:52;;;;;;;7.70;4.20;;;;;;;20.87;61.05;98176.94;5036039;28;20040;-75
2022/05/21 06:54:17;;;;;;;5.30;3.75;;;;;;;20.97;60.55;98176.44;5034180;28;20091;-76
2022/05/21 06:56:43;;;;;;;6.78;3.75;;;;;;;21.00;60.95;98183.25;5032571;28;20494;-75
2022/05/21 06:59:08;;;;;;;9.93;4.28;;;;;;;20.90;60.60;98179.03;5032520;28;20026;-76
2022/05/21 07:01:33;;;;;;;6.13;4.30;;;;;;;20.94;60.18;98179.94;5033009;28;20017;-76
2022/05/21 07:03:59;;;;;;;7.03;3.80;;;;;;;21.01;60.04;98177.34;5032276;28;20125;-75
2022/05/21 07:09:09;;;;;;;5.40;4.30;;;;;;;21.12;59.51;98178.44;5032492;28;20039;-76
2022/05/21 07:11:34;;;;;;;10.00;4.30;;;;;;;20.96;60.47;98194.28;5032112;28;20092;-75
2022/05/21 07:14:00;;;;;;;7.55;4.50;;;;;;;20.71;61.65;98176.94;5032401;28;20030;-76
2022/05/21 07:16:25;;;;;;;6.20;4.28;;;;;;;20.68;62.78;98191.53;5032076;28;20033;-75
2022/05/21 07:18:51;;;;;;;8.73;4.38;;;;;;;20.48;62.58;98172.31;5031696;28;20049;-75
2022/05/21 07:21:19;;;;;;;8.18;3.72;;;;;;;20.50;61.78;98176.34;5032035;28;20017;-76
2022/05/21 07:23:46;;;;;;;10.32;4.03;;;;;;;20.66;61.57;98173.59;5032121;28;20478;-75
2022/05/21 07:26:12;;;;;;;24.55;13.73;;;;;;;20.65;61.38;98171.97;5032042;28;20066;-75
2022/05/21 07:28:38;;;;;;;8.68;4.55;;;;;;;20.73;62.01;98171.03;5031748;28;20808;-76
2022/05/21 07:31:04;;;;;;;7.57;4.10;;;;;;;21.01;62.60;98179.31;5031031;28;20040;-75
2022/05/21 07:33:30;;;;;;;13.82;7.95;;;;;;;21.21;62.18;98159.59;5034031;28;20041;-76
2022/05/21 07:35:55;;;;;;;34.33;19.25;;;;;;;21.46;61.80;98167.75;5031808;28;20034;-76
2022/05/21 07:38:21;;;;;;;34.75;15.63;;;;;;;21.72;61.07;98176.31;5038403;28;20061;-74
2022/05/21 07:40:48;;;;;;;7.22;4.15;;;;;;;21.97;60.50;98177.72;5050327;28;20386;-74
2022/05/21 07:43:27;;;;;;;13.18;4.05;;;;;;;22.24;57.72;98176.69;5052715;28;20033;-73
2022/05/21 07:45:54;;;;;;;6.70;4.53;;;;;;;22.44;56.83;98180.28;5050736;28;20055;-73
2022/05/21 07:48:20;;;;;;;7.63;4.38;;;;;;;22.28;53.37;98172.00;5051155;28;20200;-74
2022/05/21 07:50:49;;;;;;;21.83;11.00;;;;;;;22.20;54.96;98181.41;5052630;28;20120;-74
2022/05/21 07:53:21;;;;;;;14.55;9.02;;;;;;;22.29;56.79;98176.41;5035253;28;20021;-75
2022/05/21 07:55:50;;;;;;;6.72;3.83;;;;;;;22.46;57.04;98177.16;5030024;28;20466;-74
2022/05/21 07:58:17;;;;;;;7.60;4.45;;;;;;;22.64;56.38;98179.13;5029687;28;20490;-74
2022/05/21 08:00:43;;;;;;;12.80;6.93;;;;;;;22.74;56.46;98177.75;5030148;28;20029;-73
2022/05/21 08:03:09;;;;;;;14.55;6.28;;;;;;;22.71;55.98;98184.84;5030173;28;20022;-74
2022/05/21 08:05:35;;;;;;;8.73;5.07;;;;;;;22.57;56.98;98172.59;5030003;28;20536;-73
2022/05/21 08:08:01;;;;;;;7.93;4.43;;;;;;;22.67;55.50;98177.59;5031353;28;20029;-72
2022/05/21 08:10:27;;;;;;;8.55;5.00;;;;;;;22.60;55.95;98178.22;5030712;28;20025;-73
2022/05/21 08:12:53;;;;;;;10.68;4.90;;;;;;;22.91;54.98;98172.47;5029913;28;20489;-74
2022/05/21 08:15:20;;;;;;;37.38;23.65;;;;;;;23.17;55.02;98182.91;5030700;28;20033;-75
2022/05/21 08:17:46;;;;;;;10.27;5.35;;;;;;;23.32;54.49;98179.19;5026812;28;20478;-75
2022/05/21 08:20:13;;;;;;;10.45;4.90;;;;;;;23.58;53.29;98183.22;5030370;28;20548;-75
2022/05/21 08:28:13;;;;;;;9.40;3.50;;;;;;;24.60;51.04;98179.06;5028816;28;20033;-73
2022/05/21 08:30:43;;;;;;;5.90;3.67;;;;;;;24.85;50.82;98176.56;5027784;28;20116;-76
2022/05/21 08:33:09;;;;;;;11.15;4.03;;;;;;;25.17;49.62;98177.69;5027083;28;20034;-75
2022/05/21 08:35:35;;;;;;;7.80;3.72;;;;;;;25.34;48.30;98176.25;5025625;28;20485;-75
2022/05/21 08:38:01;;;;;;;6.22;3.97;;;;;;;25.29;49.04;98165.38;5027892;28;20061;-74
2022/05/21 08:40:38;;;;;;;8.02;4.00;;;;;;;25.36;47.95;98160.66;5010567;28;20049;-74
2022/05/21 08:43:05;;;;;;;5.05;4.00;;;;;;;25.43;48.29;98157.91;5026924;28;20033;-75
2022/05/21 08:45:53;;;;;;;4.93;3.88;;;;;;;25.25;48.43;98142.94;5028294;28;20087;-75
2022/05/21 08:48:20;;;;;;;4.90;3.92;;;;;;;24.89;49.51;98155.00;5042725;28;20048;-77
2022/05/21 08:50:52;;;;;;;8.88;3.65;;;;;;;24.93;50.28;98145.47;5027463;28;20700;-73
2022/05/21 08:53:23;;;;;;;4.45;3.70;;;;;;;25.18;49.63;98137.28;5026352;28;20460;-74
2022/05/21 08:55:52;;;;;;;10.80;4.20;;;;;;;25.30;49.81;98139.78;5029759;28;20116;-74
2022/05/21 08:58:21;;;;;;;5.95;4.25;;;;;;;25.56;48.28;98142.41;5034856;28;20033;-75
2022/05/21 09:00:48;;;;;;;5.70;4.13;;;;;;;25.67;47.47;98142.50;5038615;28;20013;-73
2022/05/21 09:03:20;;;;;;;8.68;4.07;;;;;;;25.55;47.47;98140.81;5030642;28;20526;-73
2022/05/21 09:06:06;;;;;;;5.60;3.80;;;;;;;25.44;49.19;98133.47;5025663;28;20063;-73
2022/05/21 09:08:42;;;;;;;9.65;3.78;;;;;;;25.62;48.73;98130.84;5058426;28;21494;-73
2022/05/21 09:11:34;;;;;;;10.15;3.97;;;;;;;25.76;48.39;98130.94;5026000;28;20045;-74
2022/05/21 09:14:03;;;;;;;4.43;3.70;;;;;;;25.83;48.58;98126.19;5018313;28;20062;-72
2022/05/21 09:19:19;;;;;;;6.55;3.63;;;;;;;26.09;47.70;98130.72;5027342;28;20102;-72
2022/05/21 09:21:50;;;;;;;6.20;3.20;;;;;;;26.20;47.26;98131.59;5026839;28;20044;-73
2022/05/21 09:24:36;;;;;;;6.10;3.75;;;;;;;26.23;46.80;98128.00;5026096;28;20025;-72
2022/05/21 09:27:03;;;;;;;10.90;3.97;;;;;;;26.10;46.68;98121.91;5026611;28;20052;-72
2022/05/21 09:29:35;;;;;;;5.38;3.80;;;;;;;26.14;46.29;98121.13;5027016;28;20129;-72
2022/05/21 09:32:23;;;;;;;6.43;3.45;;;;;;;26.04;46.64;98101.06;5027629;28;20043;-73
2022/05/21 09:35:03;;;;;;;7.65;3.50;;;;;;;26.23;46.55;98116.78;5027384;28;20037;-73
2022/05/21 09:37:30;;;;;;;6.63;3.90;;;;;;;26.26;46.07;98123.59;5027132;28;20129;-72
2022/05/21 09:39:59;;;;;;;11.35;4.13;;;;;;;26.32;46.47;98116.41;5027037;28;20037;-73
2022/05/21 09:45:22;;;;;;;4.80;3.10;;;;;;;26.45;45.65;98115.66;5031010;28;20103;-73
2022/05/21 09:48:13;;;;;;;6.38;4.15;;;;;;;26.34;45.43;98109.22;5031384;28;20148;-72
2022/05/21 09:50:47;;;;;;;4.70;3.28;;;;;;;26.33;45.62;98095.59;5020542;28;20080;-71
2022/05/21 09:53:23;;;;;;;6.37;3.83;;;;;;;26.36;45.67;98095.59;5031055;28;20394;-73
2022/05/21 09:56:01;;;;;;;9.27;4.53;;;;;;;26.52;45.37;98098.03;5044175;28;20286;-74
2022/05/21 09:58:30;;;;;;;9.13;4.53;;;;;;;26.47;45.27;98087.22;5029301;28;20030;-72
2022/05/21 10:00:57;;;;;;;6.55;3.50;;;;;;;26.35;45.36;98088.38;5030461;28;20030;-72
2022/05/21 10:03:35;;;;;;;6.20;4.00;;;;;;;26.45;46.00;98093.22;5031106;28;20044;-71
2022/05/21 10:06:03;;;;;;;9.13;3.42;;;;;;;26.36;44.82;98080.75;5029791;28;20033;-71
2022/05/21 10:11:38;;;;;;;4.97;3.45;;;;;;;26.47;44.21;98085.19;5028320;28;20044;-72
2022/05/21 10:14:05;;;;;;;;;;;;;;;26.43;44.23;98077.97;5030361;28;20041;-72
2022/05/21 10:16:33;;;;;;;6.47;3.70;;;;;;;26.37;44.65;98080.38;5031033;28;19944;-71
2022/05/21 10:19:17;;;;;;;8.10;4.03;;;;;;;26.45;44.79;98076.38;5028510;28;20526;-71
2022/05/21 10:22:10;;;;;;;4.75;3.10;;;;;;;26.55;43.67;98075.59;5030487;28;20029;-71
2022/05/21 10:24:50;;;;;;;9.05;3.38;;;;;;;26.65;43.32;98064.78;5030605;28;20029;-71
2022/05/21 10:27:43;;;;;;;5.00;3.20;;;;;;;26.77;43.05;98058.78;5030457;28;20037;-72
2022/05/21 10:30:32;;;;;;;5.47;3.38;;;;;;;26.47;44.15;98056.34;5044558;28;20083;-72
2022/05/21 10:33:21;;;;;;;5.85;3.83;;;;;;;26.54;44.35;98048.72;5020070;28;20477;-72
2022/05/21 10:36:03;;;;;;;5.40;3.97;;;;;;;26.66;43.81;98043.94;5028917;28;20037;-71
2022/05/21 10:38:49;;;;;;;6.38;3.72;;;;;;;26.89;43.80;98041.56;5030513;28;20383;-73
2022/05/21 10:41:52;;;;;;;5.53;3.30;;;;;;;27.11;43.21;98040.38;5027880;28;20025;-72
2022/05/21 10:44:23;;;;;;;6.68;3.67;;;;;;;27.14;42.39;98042.38;5029787;28;20060;-72
2022/05/21 10:46:57;;;;;;;4.30;3.38;;;;;;;27.05;42.98;98050.41;5029390;28;20022;-72
2022/05/21 10:49:41;;;;;;;5.37;3.50;;;;;;;26.90;42.61;98049.63;5044371;28;20040;-72
2022/05/21 10:52:51;;;;;;;6.93;3.50;;;;;;;26.87;43.49;98039.19;5029639;28;20033;-72
2022/05/21 10:55:27;;;;;;;7.55;3.78;;;;;;;26.73;43.36;98029.91;5028866;28;20512;-72
2022/05/21 10:58:05;;;;;;;7.13;4.30;;;;;;;26.63;43.70;98022.28;5029730;28;20041;-72
2022/05/21 11:00:47;;;;;;;6.18;3.45;;;;;;;26.89;44.18;98021.91;5027790;28;20037;-72
2022/05/21 11:03:33;;;;;;;6.22;3.92;;;;;;;27.21;43.33;98016.28;5029803;28;20041;-73
2022/05/21 11:06:13;;;;;;;8.30;3.75;;;;;;;27.37;42.65;98011.84;5041241;28;20041;-74
2022/05/21 11:08:49;;;;;;;6.97;3.72;;;;;;;27.43;41.88;98013.06;5037872;28;20053;-72
2022/05/21 11:11:26;;;;;;;6.95;3.65;;;;;;;27.53;41.56;98011.44;5029096;28;20026;-72
2022/05/21 11:14:04;;;;;;;7.45;3.78;;;;;;;27.43;41.94;98007.44;5029451;28;20042;-73
2022/05/21 11:16:47;;;;;;;9.25;3.75;;;;;;;27.41;41.44;98009.03;5028929;28;20040;-73
2022/05/21 11:19:20;;;;;;;7.10;3.85;;;;;;;27.43;41.47;98007.44;5029010;28;20034;-72
2022/05/21 11:21:51;;;;;;;5.45;3.30;;;;;;;27.52;41.83;98007.81;5028915;28;20116;-73
2022/05/21 11:24:27;;;;;;;5.55;3.75;;;;;;;27.53;41.32;98003.81;5029322;28;20490;-72
2022/05/21 11:27:00;;;;;;;7.78;3.72;;;;;;;27.38;41.61;98004.22;5029086;28;20044;-73
2022/05/21 11:29:26;;;;;;;6.57;3.80;;;;;;;27.26;41.48;97997.00;5043711;28;20086;-72
2022/05/21 11:37:55;;;;;;;5.30;3.65;;;;;;;27.37;41.80;97991.38;5008463;28;20540;-71
2022/05/21 11:43:57;;;;;;;5.05;3.10;;;;;;;27.68;41.06;97990.50;5025252;28;20087;-72
2022/05/21 11:46:41;;;;;;;4.75;3.47;;;;;;;27.93;40.56;97984.75;5031850;28;20521;-72
2022/05/21 11:49:43;;;;;;;6.70;3.90;;;;;;;28.17;39.83;97981.84;5030505;28;20038;-71
2022/05/21 11:52:27;;;;;;;5.75;3.40;;;;;;;28.25;39.79;97979.78;5013730;28;20483;-73
2022/05/21 11:54:58;;;;;;;8.10;3.47;;;;;;;28.20;39.28;97977.38;5031270;28;20112;-73
2022/05/21 11:57:46;;;;;;;6.35;3.65;;;;;;;27.98;39.53;97970.25;5030776;28;20552;-72
2022/05/21 12:00:17;;;;;;;4.90;3.67;;;;;;;28.19;39.46;97973.00;5031458;28;20049;-72
2022/05/21 12:02:58;;;;;;;5.40;3.58;;;;;;;28.11;38.89;97977.84;5031844;28;20060;-71
2022/05/21 12:05:33;;;;;;;8.35;3.50;;;;;;;28.09;39.32;97974.66;5030028;28;20091;-72
2022/05/21 12:08:10;;;;;;;4.68;3.35;;;;;;;28.16;39.16;97966.16;5031504;28;20777;-72
2022/05/21 12:10:56;;;;;;;5.00;3.28;;;;;;;28.28;37.97;97961.28;5015626;28;20033;-71
2022/05/21 12:13:33;;;;;;;5.35;3.28;;;;;;;28.40;38.36;97963.59;5028811;28;20029;-72
2022/05/21 12:16:23;;;;;;;5.35;3.10;;;;;;;28.50;37.99;97966.34;5024945;28;20186;-71
2022/05/21 12:18:59;;;;;;;4.47;3.35;;;;;;;28.59;38.30;97960.25;5017403;28;20084;-70
2022/05/21 12:21:28;;;;;;;6.30;3.42;;;;;;;28.69;38.57;97956.56;5025680;28;20116;-70
2022/05/21 12:23:54;;;;;;;5.93;3.45;;;;;;;28.63;38.17;97961.78;5026519;28;20478;-70
2022/05/21 12:26:29;;;;;;;8.50;3.85;;;;;;;28.63;38.65;97944.91;5026752;28;20041;-71